Time;durP1;ratioP1;P1;durP2;ratioP2;P2;SDS_P1;SDS_P2;PMS_P1;PMS_P2;Temp;Humidity;BMP_temperature;BMP_pressure;BME280_temperature;BME280_humidity;BME280_pressure;Samples;Min_cycle;Max_cycle;Signal;HPM_P1;HPM_P2
2023/03/16 00:01:04;;;;;;;0.82;0.82;;;3.00;99.90;;;;;;5069480;28;20068;-77
2023/03/16 00:03:29;;;;;;;0.90;0.90;;;3.00;99.90;;;;;;5069097;28;21696;-77
2023/03/16 00:05:55;;;;;;;0.80;0.80;;;3.00;99.90;;;;;;5058003;28;20046;-77
2023/03/16 00:08:21;;;;;;;0.90;0.90;;;3.00;99.90;;;;;;5040901;28;20754;-76
2023/03/16 00:10:47;;;;;;;0.88;0.88;;;3.00;99.90;;;;;;5067760;28;20048;-77
2023/03/16 00:13:17;;;;;;;0.82;0.82;;;3.00;99.90;;;;;;5052629;28;20048;-77
2023/03/16 00:15:55;;;;;;;0.90;0.90;;;3.10;99.90;;;;;;5075743;28;20075;-77
2023/03/16 00:18:22;;;;;;;0.80;0.80;;;3.00;99.90;;;;;;5069150;28;20443;-77
2023/03/16 00:20:52;;;;;;;0.90;0.90;;;3.10;99.90;;;;;;5069314;28;20045;-77
2023/03/16 00:23:18;;;;;;;0.90;0.90;;;3.10;99.90;;;;;;5051723;28;22416;-77
2023/03/16 00:25:44;;;;;;;0.80;0.80;;;3.10;99.90;;;;;;5069135;28;20052;-77
2023/03/16 00:28:12;;;;;;;0.90;0.90;;;3.10;99.90;;;;;;5071429;28;20048;-77
2023/03/16 00:30:38;;;;;;;0.80;0.80;;;3.20;99.90;;;;;;5062892;28;20052;-76
2023/03/16 00:33:04;;;;;;;0.90;0.90;;;3.20;99.90;;;;;;5039567;28;20110;-77
2023/03/16 00:35:33;;;;;;;0.90;0.90;;;3.20;99.90;;;;;;5061600;28;20044;-77
2023/03/16 00:37:59;;;;;;;0.90;0.90;;;3.20;99.90;;;;;;5058876;28;20326;-77
2023/03/16 00:40:24;;;;;;;0.80;0.80;;;3.20;99.90;;;;;;5056180;28;20802;-76
2023/03/16 00:42:50;;;;;;;0.80;0.80;;;3.20;99.90;;;;;;5049764;28;20587;-77
2023/03/16 00:45:16;;;;;;;0.90;0.90;;;3.30;99.90;;;;;;5037999;28;20048;-77
2023/03/16 00:47:41;;;;;;;0.80;0.80;;;3.30;99.90;;;;;;5058387;28;20072;-76
2023/03/16 00:50:07;;;;;;;0.90;0.90;;;3.20;99.90;;;;;;5054702;28;20394;-77
2023/03/16 00:52:34;;;;;;;0.90;0.90;;;3.30;99.90;;;;;;5054694;28;20489;-77
2023/03/16 00:55:02;;;;;;;0.90;0.90;;;3.30;99.90;;;;;;5044985;28;20063;-76
2023/03/16 00:57:28;;;;;;;0.80;0.80;;;3.30;99.90;;;;;;5038384;28;20690;-77
2023/03/16 00:59:54;;;;;;;0.90;0.90;;;3.30;99.90;;;;;;5055259;28;20541;-77
2023/03/16 01:02:23;;;;;;;0.80;0.80;;;3.30;99.90;;;;;;5053156;28;20036;-77
2023/03/16 01:04:49;;;;;;;0.80;0.80;;;3.30;99.90;;;;;;5039342;28;20417;-77
2023/03/16 01:07:15;;;;;;;0.90;0.90;;;3.40;99.90;;;;;;5061648;28;20903;-77
2023/03/16 01:09:41;;;;;;;0.80;0.80;;;3.30;99.90;;;;;;5068072;28;20048;-77
2023/03/16 01:12:11;;;;;;;0.88;0.88;;;3.40;99.90;;;;;;5068067;28;20439;-77
2023/03/16 01:14:37;;;;;;;0.90;0.90;;;3.40;99.90;;;;;;5051513;28;20047;-77
2023/03/16 01:17:07;;;;;;;0.90;0.90;;;3.40;99.90;;;;;;5055027;28;20051;-77
2023/03/16 01:19:34;;;;;;;0.90;0.90;;;3.40;99.90;;;;;;5045831;28;20048;-77
2023/03/16 01:22:01;;;;;;;0.90;0.90;;;3.40;99.90;;;;;;5054028;28;20033;-76
2023/03/16 01:24:27;;;;;;;0.90;0.90;;;3.40;99.90;;;;;;5057492;28;20552;-77
2023/03/16 01:26:53;;;;;;;0.90;0.90;;;3.40;99.90;;;;;;5036364;28;20166;-77
2023/03/16 01:29:19;;;;;;;0.90;0.90;;;3.40;99.90;;;;;;5053568;28;20530;-77
2023/03/16 01:31:44;;;;;;;0.88;0.88;;;3.40;99.90;;;;;;5040601;28;20823;-77
2023/03/16 01:34:15;;;;;;;0.90;0.90;;;3.40;99.90;;;;;;5056929;28;20048;-77
2023/03/16 01:36:43;;;;;;;0.90;0.90;;;3.30;99.90;;;;;;5038520;28;20562;-77
2023/03/16 01:39:10;;;;;;;0.80;0.80;;;3.30;99.90;;;;;;5050998;28;20044;-78
2023/03/16 01:41:36;;;;;;;0.80;0.80;;;3.30;99.90;;;;;;5056087;28;20071;-77
2023/03/16 01:44:02;;;;;;;1.00;1.00;;;3.40;99.90;;;;;;5032257;28;20509;-77
2023/03/16 01:46:28;;;;;;;0.80;0.80;;;3.30;99.90;;;;;;5055744;28;20135;-77
2023/03/16 01:49:11;;;;;;;0.90;0.90;;;3.30;99.90;;;;;;5055576;28;20557;-77
2023/03/16 01:51:59;;;;;;;0.90;0.90;;;3.30;99.90;;;;;;5056114;28;20040;-77
2023/03/16 01:54:49;;;;;;;0.82;0.82;;;3.30;99.90;;;;;;5054458;28;20074;-77
2023/03/16 01:57:25;;;;;;;0.90;0.90;;;3.30;99.90;;;;;;5040838;28;20052;-77
2023/03/16 01:59:53;;;;;;;0.80;0.80;;;3.20;99.90;;;;;;5050328;28;20059;-77
2023/03/16 02:02:22;;;;;;;0.80;0.80;;;3.20;99.90;;;;;;5052597;28;20729;-77
2023/03/16 02:05:04;;;;;;;0.80;0.80;;;3.10;99.90;;;;;;5031404;28;20093;-78
2023/03/16 02:07:39;;;;;;;0.80;0.80;;;3.10;99.90;;;;;;5053971;28;20037;-78
2023/03/16 02:10:06;;;;;;;0.90;0.90;;;3.10;99.90;;;;;;5048403;28;20053;-77
2023/03/16 02:12:32;;;;;;;0.90;0.90;;;3.20;99.90;;;;;;5049037;28;20056;-77
2023/03/16 02:14:58;;;;;;;0.90;0.90;;;3.10;99.90;;;;;;5058545;28;20050;-77
2023/03/16 02:17:29;;;;;;;0.90;0.90;;;3.10;99.90;;;;;;5055888;28;20040;-77
2023/03/16 02:20:10;;;;;;;0.88;0.88;;;3.10;99.90;;;;;;5055167;28;20044;-77
2023/03/16 02:22:46;;;;;;;0.90;0.90;;;3.10;99.90;;;;;;5057924;28;20040;-77
2023/03/16 02:25:15;;;;;;;0.80;0.80;;;3.10;99.90;;;;;;5057917;28;20103;-76
2023/03/16 02:27:59;;;;;;;0.90;0.90;;;3.10;99.90;;;;;;5040386;28;20064;-77
2023/03/16 02:30:25;;;;;;;;;;;3.10;99.90;;;;;;5051073;28;20054;-78
2023/03/16 02:32:52;;;;;;;0.90;0.90;;;3.10;99.90;;;;;;5039948;28;20152;-76
2023/03/16 02:35:19;;;;;;;0.90;0.90;;;3.20;99.90;;;;;;5038199;28;20047;-77
2023/03/16 02:37:44;;;;;;;0.80;0.80;;;3.20;99.90;;;;;;5051938;28;20056;-77
2023/03/16 02:40:23;;;;;;;0.80;0.80;;;3.20;99.90;;;;;;5033712;28;20059;-77
2023/03/16 02:43:03;;;;;;;0.80;0.80;;;3.30;99.90;;;;;;5035280;28;20055;-77
2023/03/16 02:45:57;;;;;;;0.80;0.80;;;3.30;99.90;;;;;;5036400;28;20097;-77
2023/03/16 02:48:31;;;;;;;0.80;0.80;;;3.30;99.90;;;;;;5034215;28;20060;-77
2023/03/16 02:50:57;;;;;;;0.80;0.80;;;3.40;99.90;;;;;;5059594;28;20048;-77
2023/03/16 02:53:23;;;;;;;0.90;0.90;;;3.40;99.90;;;;;;5043292;28;20137;-77
2023/03/16 02:55:49;;;;;;;0.90;0.90;;;3.40;99.90;;;;;;5060239;28;20052;-77
2023/03/16 02:58:15;;;;;;;0.90;0.90;;;3.50;99.90;;;;;;5061641;28;20287;-76
2023/03/16 03:00:42;;;;;;;0.90;0.90;;;3.50;99.90;;;;;;5057956;28;20441;-77
2023/03/16 03:03:08;;;;;;;0.90;0.90;;;3.50;99.90;;;;;;5058965;28;20044;-76
2023/03/16 03:05:35;;;;;;;0.90;0.90;;;3.50;99.90;;;;;;5037166;28;20241;-76
2023/03/16 03:08:00;;;;;;;0.85;0.85;;;3.50;99.90;;;;;;5041121;28;20056;-77
2023/03/16 03:10:26;;;;;;;0.90;0.90;;;3.60;99.90;;;;;;5034900;28;20044;-77
2023/03/16 03:12:52;;;;;;;0.90;0.90;;;3.60;99.90;;;;;;5059302;28;20340;-77
2023/03/16 03:15:18;;;;;;;0.85;0.85;;;3.70;99.90;;;;;;5053623;28;20135;-77
2023/03/16 03:17:44;;;;;;;0.80;0.80;;;3.70;99.90;;;;;;5058580;28;20139;-77
2023/03/16 03:20:18;;;;;;;0.90;0.90;;;3.70;99.90;;;;;;5042466;28;20048;-76
2023/03/16 03:22:47;;;;;;;0.90;0.90;;;3.70;99.90;;;;;;5057303;28;20886;-77
2023/03/16 03:25:15;;;;;;;0.90;0.90;;;3.80;99.90;;;;;;5057005;28;20066;-78
2023/03/16 03:27:42;;;;;;;0.90;0.90;;;3.70;99.90;;;;;;5058441;28;20040;-77
2023/03/16 03:30:14;;;;;;;0.90;0.90;;;3.80;99.90;;;;;;5041224;28;20215;-77
2023/03/16 03:32:40;;;;;;;0.90;0.90;;;3.80;99.90;;;;;;5047021;28;20048;-77
2023/03/16 03:35:07;;;;;;;0.90;0.90;;;3.80;99.90;;;;;;5077268;28;20040;-77
2023/03/16 03:37:33;;;;;;;0.90;0.90;;;3.80;99.90;;;;;;5077504;28;20040;-76
2023/03/16 03:39:59;;;;;;;0.90;0.90;;;3.80;99.90;;;;;;5076015;28;20090;-77
2023/03/16 03:42:25;;;;;;;0.90;0.90;;;3.80;99.90;;;;;;5072419;28;20513;-77
2023/03/16 03:44:51;;;;;;;1.00;1.00;;;3.80;99.90;;;;;;5058453;28;20047;-77
2023/03/16 03:47:18;;;;;;;0.90;0.90;;;3.90;99.90;;;;;;5054860;28;20047;-77
2023/03/16 03:49:44;;;;;;;0.90;0.90;;;3.90;99.90;;;;;;5056110;28;20105;-77
2023/03/16 03:52:09;;;;;;;0.90;0.90;;;3.90;99.90;;;;;;5076167;28;20048;-77
2023/03/16 03:54:35;;;;;;;0.90;0.90;;;3.90;99.90;;;;;;5076527;28;20668;-78
2023/03/16 03:57:02;;;;;;;0.90;0.90;;;3.90;99.90;;;;;;5058200;28;20047;-77
2023/03/16 03:59:27;;;;;;;0.80;0.80;;;3.90;99.90;;;;;;5075049;28;20046;-77
2023/03/16 04:01:53;;;;;;;0.90;0.90;;;3.90;99.90;;;;;;5077166;28;20047;-77
2023/03/16 04:04:19;;;;;;;0.90;0.90;;;3.90;99.90;;;;;;5076929;28;20635;-78
2023/03/16 04:06:45;;;;;;;0.90;0.90;;;3.90;99.90;;;;;;5077373;28;20048;-77
2023/03/16 04:09:11;;;;;;;0.90;0.90;;;4.00;99.90;;;;;;5053998;28;20055;-77
2023/03/16 04:11:37;;;;;;;0.90;0.90;;;4.00;99.90;;;;;;5073683;28;20040;-77
2023/03/16 04:14:04;;;;;;;0.90;0.90;;;4.00;99.90;;;;;;5077498;28;20051;-77
2023/03/16 04:16:30;;;;;;;0.90;0.90;;;4.10;99.90;;;;;;5059095;28;20505;-77
2023/03/16 04:18:56;;;;;;;0.90;0.90;;;4.10;99.90;;;;;;5076027;28;20067;-77
2023/03/16 04:21:22;;;;;;;0.90;0.90;;;4.10;99.90;;;;;;5075103;28;20036;-77
2023/03/16 04:23:48;;;;;;;0.85;0.85;;;4.10;99.90;;;;;;5056873;28;20492;-77
2023/03/16 04:26:14;;;;;;;0.90;0.90;;;4.10;99.90;;;;;;5073994;28;20074;-77
2023/03/16 04:28:42;;;;;;;0.90;0.90;;;4.10;99.90;;;;;;5075750;28;20479;-78
2023/03/16 04:31:09;;;;;;;0.88;0.88;;;4.10;99.90;;;;;;5051879;28;20112;-77
2023/03/16 04:33:37;;;;;;;0.90;0.90;;;4.10;99.90;;;;;;5057444;28;20159;-77
2023/03/16 04:36:04;;;;;;;0.90;0.90;;;4.10;99.90;;;;;;5057999;28;20043;-77
2023/03/16 04:38:33;;;;;;;0.90;0.90;;;4.10;99.90;;;;;;5076108;28;20114;-76
2023/03/16 04:40:59;;;;;;;0.90;0.90;;;4.10;99.90;;;;;;5069216;28;20047;-77
2023/03/16 04:43:26;;;;;;;0.90;0.90;;;4.00;99.90;;;;;;5054954;28;20093;-77
2023/03/16 04:45:51;;;;;;;0.90;0.90;;;4.10;99.90;;;;;;5052235;28;20059;-78
2023/03/16 04:48:17;;;;;;;0.90;0.90;;;4.00;99.90;;;;;;5052531;28;20413;-77
2023/03/16 04:50:43;;;;;;;0.90;0.90;;;4.10;99.90;;;;;;5054783;28;20442;-77
2023/03/16 04:53:09;;;;;;;1.00;1.00;;;4.00;99.90;;;;;;5071056;28;20147;-77
2023/03/16 04:55:35;;;;;;;0.90;0.90;;;4.10;99.90;;;;;;5074736;28;20398;-77
2023/03/16 04:58:00;;;;;;;0.90;0.90;;;4.00;99.90;;;;;;5058140;28;20074;-77
2023/03/16 05:00:26;;;;;;;0.90;0.90;;;4.10;99.90;;;;;;5069248;28;20052;-77
2023/03/16 05:02:52;;;;;;;0.90;0.90;;;4.10;99.90;;;;;;5074151;28;20064;-77
2023/03/16 05:05:18;;;;;;;0.90;0.90;;;4.10;99.90;;;;;;5055545;28;20040;-77
2023/03/16 05:07:44;;;;;;;0.90;0.90;;;4.10;99.90;;;;;;5056403;28;20048;-77
2023/03/16 05:10:12;;;;;;;0.90;0.90;;;4.10;99.90;;;;;;5066406;28;20062;-77
2023/03/16 05:12:37;;;;;;;0.90;0.90;;;4.10;99.90;;;;;;5070782;28;20043;-77
2023/03/16 05:15:05;;;;;;;0.90;0.90;;;4.10;99.90;;;;;;5071635;28;20037;-77
2023/03/16 05:17:30;;;;;;;0.88;0.88;;;4.10;99.90;;;;;;5074514;28;20044;-77
2023/03/16 05:19:56;;;;;;;0.95;0.95;;;4.20;99.90;;;;;;5068930;28;20152;-77
2023/03/16 05:22:22;;;;;;;0.90;0.90;;;4.10;99.90;;;;;;5073633;28;20381;-77
2023/03/16 05:24:48;;;;;;;0.90;0.90;;;4.10;99.90;;;;;;5072963;28;20071;-77
2023/03/16 05:27:14;;;;;;;0.90;0.90;;;4.10;99.90;;;;;;5070667;28;20042;-76
2023/03/16 05:29:44;;;;;;;0.80;0.80;;;4.10;99.90;;;;;;5051345;28;20047;-77
2023/03/16 05:32:10;;;;;;;0.80;0.80;;;4.10;99.90;;;;;;5069367;28;20050;-77
2023/03/16 05:34:36;;;;;;;0.80;0.80;;;4.10;99.90;;;;;;5074451;28;20483;-77
2023/03/16 05:37:02;;;;;;;0.90;0.90;;;4.20;99.90;;;;;;5074195;28;20047;-76
2023/03/16 05:39:29;;;;;;;0.80;0.80;;;4.10;99.90;;;;;;5053244;28;20048;-77
2023/03/16 05:41:56;;;;;;;0.90;0.90;;;4.10;99.90;;;;;;5053024;28;20044;-77
2023/03/16 05:44:22;;;;;;;0.85;0.85;;;4.20;99.90;;;;;;5054538;28;20558;-77
2023/03/16 05:46:48;;;;;;;0.80;0.80;;;4.20;99.90;;;;;;5071805;28;20040;-77
2023/03/16 05:49:14;;;;;;;0.90;0.90;;;4.20;99.90;;;;;;5047325;28;20382;-77
2023/03/16 05:51:40;;;;;;;0.90;0.90;;;4.20;99.90;;;;;;5067906;28;21070;-76
2023/03/16 05:54:06;;;;;;;0.90;0.90;;;4.20;99.90;;;;;;5051893;28;20631;-77
2023/03/16 05:56:32;;;;;;;0.90;0.90;;;4.20;99.90;;;;;;5071382;28;20040;-77
2023/03/16 05:58:59;;;;;;;0.80;0.80;;;4.20;99.90;;;;;;5072331;28;20058;-77
2023/03/16 06:01:25;;;;;;;0.80;0.80;;;4.30;99.90;;;;;;5045041;28;20167;-78
2023/03/16 06:03:51;;;;;;;0.90;0.90;;;4.30;99.90;;;;;;5057707;28;20051;-78
2023/03/16 06:06:18;;;;;;;0.90;0.90;;;4.30;99.90;;;;;;5056545;28;20052;-78
2023/03/16 06:08:44;;;;;;;0.80;0.80;;;4.40;99.90;;;;;;5039870;28;20052;-77
2023/03/16 06:11:10;;;;;;;0.82;0.82;;;4.40;99.90;;;;;;5061878;28;20043;-77
2023/03/16 06:13:37;;;;;;;0.90;0.90;;;4.40;99.90;;;;;;5044819;28;20051;-77
2023/03/16 06:16:05;;;;;;;0.90;0.90;;;4.40;99.90;;;;;;5033542;28;20855;-77
2023/03/16 06:18:31;;;;;;;0.80;0.80;;;4.50;99.90;;;;;;5074964;28;20076;-77
2023/03/16 06:20:56;;;;;;;0.80;0.80;;;4.50;99.90;;;;;;5066862;28;20124;-78
2023/03/16 06:23:22;;;;;;;0.80;0.80;;;4.40;99.90;;;;;;5034951;28;20548;-77
2023/03/16 06:25:49;;;;;;;0.90;0.90;;;4.40;99.90;;;;;;5074776;28;20055;-78
2023/03/16 06:28:15;;;;;;;0.90;0.90;;;4.50;99.90;;;;;;5072807;28;20731;-77
2023/03/16 06:30:41;;;;;;;0.80;0.80;;;4.60;99.90;;;;;;5060889;28;20073;-77
2023/03/16 06:33:07;;;;;;;0.90;0.90;;;4.60;99.90;;;;;;5060042;28;20063;-78
2023/03/16 06:35:33;;;;;;;0.80;0.80;;;4.60;99.90;;;;;;5040039;28;20123;-78
2023/03/16 06:37:59;;;;;;;0.90;0.90;;;4.70;99.90;;;;;;5062420;28;20048;-77
2023/03/16 06:40:24;;;;;;;0.90;0.90;;;4.70;99.90;;;;;;5063990;28;20052;-77
2023/03/16 06:42:50;;;;;;;0.80;0.80;;;4.70;99.90;;;;;;5048827;28;20048;-77
2023/03/16 06:45:16;;;;;;;0.90;0.90;;;4.70;99.90;;;;;;5046874;28;20075;-77
2023/03/16 06:47:43;;;;;;;0.90;0.90;;;4.70;99.90;;;;;;5048263;28;20067;-77
2023/03/16 06:50:10;;;;;;;0.90;0.90;;;4.70;99.90;;;;;;5064193;28;20428;-77
2023/03/16 06:52:36;;;;;;;0.80;0.80;;;4.80;99.90;;;;;;5029630;28;20642;-77
2023/03/16 06:55:02;;;;;;;0.80;0.80;;;4.80;99.90;;;;;;5041346;28;20074;-77
2023/03/16 06:57:27;;;;;;;0.80;0.80;;;4.90;99.90;;;;;;5064777;28;20154;-76
2023/03/16 06:59:53;;;;;;;0.80;0.80;;;4.90;99.90;;;;;;5057588;28;20180;-77
2023/03/16 07:02:21;;;;;;;0.80;0.80;;;4.90;99.90;;;;;;5040688;28;20044;-77
2023/03/16 07:04:46;;;;;;;0.80;0.80;;;5.00;99.90;;;;;;5059892;28;20044;-77
2023/03/16 07:07:12;;;;;;;0.90;0.90;;;5.10;99.90;;;;;;5063965;28;20090;-79
2023/03/16 07:09:38;;;;;;;0.80;0.80;;;5.20;99.90;;;;;;5064254;28;20086;-77
2023/03/16 07:12:04;;;;;;;0.80;0.80;;;5.20;99.90;;;;;;5060679;28;20513;-79
2023/03/16 07:14:30;;;;;;;0.80;0.80;;;5.20;99.90;;;;;;5044150;28;20053;-78
2023/03/16 07:16:56;;;;;;;0.80;0.80;;;5.20;99.90;;;;;;5047479;28;20063;-78
2023/03/16 07:19:21;;;;;;;0.80;0.80;;;5.10;99.90;;;;;;5071597;28;20063;-76
2023/03/16 07:21:48;;;;;;;0.80;0.80;;;5.20;99.90;;;;;;5076162;28;20101;-78
2023/03/16 07:24:14;;;;;;;0.80;0.80;;;5.20;99.90;;;;;;5076968;28;20668;-77
2023/03/16 07:26:40;;;;;;;0.80;0.80;;;5.30;99.90;;;;;;5078856;28;20048;-77
2023/03/16 07:29:06;;;;;;;0.80;0.80;;;5.30;99.90;;;;;;5076106;28;20109;-76
2023/03/16 07:31:33;;;;;;;0.80;0.80;;;5.30;99.90;;;;;;5076904;28;20052;-77
2023/03/16 07:34:01;;;;;;;0.70;0.70;;;5.50;99.90;;;;;;5079296;28;20054;-77
2023/03/16 07:36:26;;;;;;;0.80;0.80;;;5.50;99.90;;;;;;5075850;28;20055;-77
2023/03/16 07:38:52;;;;;;;0.80;0.80;;;5.50;99.90;;;;;;5076155;28;20574;-77
2023/03/16 07:41:18;;;;;;;0.80;0.80;;;5.50;99.90;;;;;;5071877;28;20048;-77
2023/03/16 07:43:44;;;;;;;0.80;0.80;;;5.50;99.90;;;;;;5075878;28;20032;-77
2023/03/16 07:46:12;;;;;;;0.80;0.80;;;5.50;99.90;;;;;;5078524;28;20126;-76
2023/03/16 07:48:39;;;;;;;0.70;0.70;;;5.50;99.90;;;;;;5059888;28;20048;-77
2023/03/16 07:51:05;;;;;;;0.70;0.70;;;5.60;99.90;;;;;;5075827;28;20044;-77
2023/03/16 07:53:31;;;;;;;0.70;0.70;;;5.70;99.90;;;;;;5077057;28;20063;-77
2023/03/16 07:55:57;;;;;;;0.70;0.70;;;5.70;99.90;;;;;;5075741;28;20662;-78
2023/03/16 07:58:22;;;;;;;0.80;0.80;;;5.80;99.90;;;;;;5076571;28;20048;-77
2023/03/16 08:00:48;;;;;;;0.70;0.70;;;5.80;99.90;;;;;;5055583;28;20063;-78
2023/03/16 08:03:14;;;;;;;0.70;0.70;;;5.80;99.90;;;;;;5078750;28;20128;-77
2023/03/16 08:05:40;;;;;;;0.70;0.70;;;5.90;99.90;;;;;;5076254;28;20518;-77
2023/03/16 08:08:08;;;;;;;0.80;0.80;;;5.90;99.90;;;;;;5075095;28;20048;-76
2023/03/16 08:10:36;;;;;;;0.70;0.70;;;6.00;99.90;;;;;;5074597;28;20048;-77
2023/03/16 08:13:05;;;;;;;0.70;0.70;;;6.10;99.90;;;;;;5062633;28;20047;-77
2023/03/16 08:15:33;;;;;;;0.73;0.73;;;6.10;99.90;;;;;;5058324;28;20084;-78
2023/03/16 08:18:01;;;;;;;0.80;0.80;;;6.20;99.90;;;;;;5074236;28;20473;-77
2023/03/16 08:20:28;;;;;;;0.75;0.75;;;6.20;99.90;;;;;;5056590;28;20048;-77
2023/03/16 08:22:54;;;;;;;0.70;0.70;;;6.30;99.90;;;;;;5077688;28;20953;-77
2023/03/16 08:25:20;;;;;;;0.70;0.70;;;6.30;99.90;;;;;;5078383;28;20040;-77
2023/03/16 08:27:47;;;;;;;0.70;0.70;;;6.40;99.90;;;;;;5059397;28;20052;-77
2023/03/16 08:30:14;;;;;;;0.70;0.70;;;6.40;99.90;;;;;;5075850;28;20059;-77
2023/03/16 08:32:40;;;;;;;0.70;0.70;;;6.40;99.90;;;;;;5076752;28;20048;-78
2023/03/16 08:35:08;;;;;;;0.70;0.70;;;6.40;99.90;;;;;;5061022;28;20044;-78
2023/03/16 08:37:34;;;;;;;0.80;0.80;;;6.50;99.90;;;;;;5079002;28;20123;-77
2023/03/16 08:40:00;;;;;;;0.80;0.80;;;6.50;99.90;;;;;;5074152;28;20131;-77
2023/03/16 08:42:27;;;;;;;0.80;0.80;;;6.50;99.90;;;;;;5075540;28;20044;-76
2023/03/16 08:44:54;;;;;;;0.80;0.80;;;6.50;99.90;;;;;;5075630;28;20048;-77
2023/03/16 08:47:23;;;;;;;0.80;0.80;;;6.50;99.90;;;;;;5077847;28;20051;-78
2023/03/16 08:49:49;;;;;;;0.80;0.80;;;6.50;99.90;;;;;;5055400;28;20051;-77
2023/03/16 08:52:15;;;;;;;0.90;0.90;;;6.60;99.90;;;;;;5077012;28;20040;-77
2023/03/16 08:54:42;;;;;;;0.80;0.80;;;6.60;99.90;;;;;;5071829;28;20047;-76
2023/03/16 08:57:09;;;;;;;0.77;0.77;;;6.80;99.90;;;;;;5058413;28;20164;-78
2023/03/16 08:59:35;;;;;;;0.80;0.80;;;6.70;99.90;;;;;;5071141;28;20126;-77
2023/03/16 09:02:03;;;;;;;0.80;0.80;;;6.70;99.90;;;;;;5074949;28;20044;-78
2023/03/16 09:04:29;;;;;;;0.80;0.80;;;6.80;99.90;;;;;;5053355;28;20480;-77
2023/03/16 09:06:55;;;;;;;0.80;0.80;;;6.80;99.90;;;;;;5050915;28;20052;-77
2023/03/16 09:09:21;;;;;;;0.80;0.80;;;6.80;99.90;;;;;;5051481;28;20054;-77
2023/03/16 09:11:48;;;;;;;0.80;0.80;;;6.80;99.90;;;;;;5067153;28;20604;-77
2023/03/16 09:14:14;;;;;;;0.80;0.80;;;6.80;99.90;;;;;;5077190;28;20125;-77
2023/03/16 09:16:40;;;;;;;0.80;0.80;;;6.80;99.90;;;;;;5059376;28;20044;-78
2023/03/16 09:19:06;;;;;;;0.80;0.80;;;6.80;99.90;;;;;;5053169;28;20059;-77
2023/03/16 09:21:33;;;;;;;0.80;0.80;;;6.80;99.90;;;;;;5073593;28;20047;-77
2023/03/16 09:23:59;;;;;;;0.80;0.80;;;6.80;99.90;;;;;;5058213;28;20067;-76
2023/03/16 09:26:27;;;;;;;0.80;0.80;;;6.80;99.90;;;;;;5076774;28;20124;-77
2023/03/16 09:28:53;;;;;;;0.80;0.80;;;6.80;99.90;;;;;;5074140;28;20042;-78
2023/03/16 09:31:19;;;;;;;0.80;0.80;;;6.90;99.90;;;;;;5054041;28;20044;-77
2023/03/16 09:33:45;;;;;;;0.80;0.80;;;6.90;99.90;;;;;;5057468;28;20044;-76
2023/03/16 09:36:12;;;;;;;0.80;0.80;;;6.90;99.90;;;;;;5055886;28;20684;-77
2023/03/16 09:38:39;;;;;;;0.80;0.80;;;6.90;99.90;;;;;;5056489;28;20052;-77
2023/03/16 09:41:37;;;;;;;0.80;0.80;;;6.90;99.90;;;;;;5069976;28;20052;-75
2023/03/16 09:44:16;;;;;;;0.80;0.80;;;6.90;99.90;;;;;;5058194;28;20044;-76
2023/03/16 09:46:45;;;;;;;0.80;0.80;;;6.90;99.90;;;;;;5071898;28;20040;-77
2023/03/16 09:49:15;;;;;;;0.90;0.90;;;7.00;99.90;;;;;;5072766;28;20084;-77
2023/03/16 09:51:48;;;;;;;0.80;0.80;;;7.00;99.90;;;;;;5056699;28;20086;-77
2023/03/16 09:54:41;;;;;;;0.80;0.80;;;7.00;99.90;;;;;;5074147;28;20363;-76
2023/03/16 09:57:29;;;;;;;0.80;0.80;;;7.00;99.90;;;;;;5063951;28;20052;-77
2023/03/16 10:00:00;;;;;;;0.82;0.82;;;7.00;99.90;;;;;;5069398;28;20547;-77
2023/03/16 10:02:35;;;;;;;0.80;0.80;;;7.00;99.90;;;;;;5068037;28;20052;-77
2023/03/16 10:05:13;;;;;;;0.70;0.70;;;7.10;99.90;;;;;;5073388;28;20075;-77
2023/03/16 10:07:55;;;;;;;0.80;0.80;;;7.10;99.90;;;;;;5048469;28;20048;-77
2023/03/16 10:10:43;;;;;;;0.80;0.80;;;7.20;99.90;;;;;;5042931;28;20583;-76
2023/03/16 10:13:35;;;;;;;0.80;0.80;;;7.10;99.90;;;;;;5049555;28;20104;-76
2023/03/16 10:16:08;;;;;;;0.80;0.80;;;7.10;99.90;;;;;;5067648;28;20098;-77
2023/03/16 10:18:44;;;;;;;0.80;0.80;;;7.10;99.90;;;;;;5040685;28;20109;-78
2023/03/16 10:21:13;;;;;;;0.80;0.80;;;7.20;99.90;;;;;;5062895;28;20701;-78
2023/03/16 10:23:40;;;;;;;0.80;0.80;;;7.10;99.90;;;;;;5065672;28;20494;-77
2023/03/16 10:26:13;;;;;;;0.90;0.90;;;7.20;99.90;;;;;;5064713;28;20048;-78
2023/03/16 10:28:38;;;;;;;0.80;0.80;;;7.10;99.90;;;;;;5063553;28;20048;-78
2023/03/16 10:31:04;;;;;;;0.70;0.70;;;7.10;99.90;;;;;;5049507;28;20063;-78
2023/03/16 10:33:35;;;;;;;0.90;0.90;;;7.20;99.90;;;;;;5067017;28;20455;-77
2023/03/16 10:36:24;;;;;;;0.80;0.80;;;7.30;99.90;;;;;;5057459;28;20040;-77
2023/03/16 10:39:17;;;;;;;0.80;0.80;;;7.30;99.90;;;;;;5073654;28;20052;-78
2023/03/16 10:41:53;;;;;;;0.80;0.80;;;7.40;99.90;;;;;;5055689;28;20063;-76
2023/03/16 10:44:24;;;;;;;0.80;0.80;;;7.40;99.90;;;;;;5076297;28;20079;-77
2023/03/16 10:47:00;;;;;;;0.88;0.88;;;7.40;99.90;;;;;;5071209;28;20086;-77
2023/03/16 10:49:43;;;;;;;0.88;0.88;;;7.40;99.90;;;;;;5075019;28;20044;-77
2023/03/16 10:52:48;;;;;;;0.80;0.80;;;7.40;99.90;;;;;;5074580;28;20043;-78
2023/03/16 10:55:23;;;;;;;0.77;0.77;;;7.30;99.90;;;;;;4996677;28;20060;-77
2023/03/16 10:57:53;;;;;;;0.80;0.80;;;7.40;99.90;;;;;;4996683;28;20077;-77
2023/03/16 11:00:24;;;;;;;0.80;0.80;;;7.40;99.90;;;;;;5030444;28;20052;-77
2023/03/16 11:02:53;;;;;;;0.80;0.80;;;7.50;99.90;;;;;;5059024;28;20127;-77
2023/03/16 11:05:27;;;;;;;0.80;0.80;;;7.50;99.90;;;;;;5075087;28;20048;-77
2023/03/16 11:08:17;;;;;;;0.80;0.80;;;7.60;99.90;;;;;;5077431;28;20413;-77
2023/03/16 11:10:56;;;;;;;0.80;0.80;;;7.60;99.90;;;;;;5053160;28;20104;-77
2023/03/16 11:13:33;;;;;;;0.70;0.70;;;7.70;99.90;;;;;;5076974;28;20128;-77
2023/03/16 11:16:13;;;;;;;0.70;0.70;;;7.70;99.90;;;;;;5079111;28;20622;-77
2023/03/16 11:18:47;;;;;;;0.80;0.80;;;7.70;99.90;;;;;;5077239;28;20044;-77
2023/03/16 11:21:49;;;;;;;0.80;0.80;;;7.80;99.90;;;;;;5055893;28;20051;-77
2023/03/16 11:24:41;;;;;;;0.80;0.80;;;7.80;99.90;;;;;;5060087;28;20059;-76
2023/03/16 11:27:43;;;;;;;0.80;0.80;;;7.80;99.90;;;;;;5058320;28;20366;-77
2023/03/16 11:30:16;;;;;;;0.80;0.80;;;7.90;99.90;;;;;;5038179;28;20433;-77
2023/03/16 11:32:47;;;;;;;0.80;0.80;;;8.00;99.90;;;;;;5073678;28;20086;-76
2023/03/16 11:35:21;;;;;;;0.80;0.80;;;8.00;99.90;;;;;;5076331;28;20135;-76
2023/03/16 11:37:56;;;;;;;0.80;0.80;;;8.10;99.90;;;;;;5058223;28;20044;-77
2023/03/16 11:40:32;;;;;;;0.80;0.80;;;8.10;99.90;;;;;;5055641;28;20051;-76
2023/03/16 11:43:33;;;;;;;0.80;0.80;;;8.20;99.90;;;;;;5061327;28;20044;-76
2023/03/16 11:46:16;;;;;;;0.80;0.80;;;8.40;99.90;;;;;;4979412;28;20057;-78
2023/03/16 11:49:03;;;;;;;0.80;0.80;;;8.50;99.90;;;;;;5067515;28;20071;-77
2023/03/16 11:51:47;;;;;;;0.80;0.80;;;8.60;99.90;;;;;;5055802;28;20046;-75
2023/03/16 11:54:24;;;;;;;0.90;0.90;;;8.60;99.90;;;;;;5074548;28;20044;-76
2023/03/16 11:57:26;;;;;;;0.80;0.80;;;8.60;99.90;;;;;;5076278;28;20052;-75
2023/03/16 12:00:06;;;;;;;0.80;0.80;;;8.60;99.90;;;;;;5057904;28;20123;-77
2023/03/16 12:02:47;;;;;;;0.80;0.80;;;8.70;99.90;;;;;;5055742;28;20058;-76
2023/03/16 12:05:22;;;;;;;0.80;0.80;;;8.70;99.90;;;;;;5078042;28;20044;-77
2023/03/16 12:08:23;;;;;;;0.80;0.80;;;8.80;99.90;;;;;;5079028;28;22112;-75
2023/03/16 12:10:57;;;;;;;0.73;0.73;;;8.90;99.90;;;;;;5058638;28;20079;-77
2023/03/16 12:13:43;;;;;;;0.70;0.70;;;9.10;99.90;;;;;;5056287;28;20627;-76
2023/03/16 12:16:22;;;;;;;0.80;0.80;;;9.40;99.90;;;;;;5061136;28;20052;-77
2023/03/16 12:18:58;;;;;;;0.70;0.70;;;9.50;99.90;;;;;;5059707;28;20123;-74
2023/03/16 12:21:31;;;;;;;0.70;0.70;;;9.60;99.90;;;;;;5074709;28;20040;-76
2023/03/16 12:24:03;;;;;;;0.70;0.70;;;9.70;99.90;;;;;;5050920;28;20039;-77
2023/03/16 12:26:34;;;;;;;0.70;0.70;;;10.00;99.90;;;;;;5077826;28;20047;-76
2023/03/16 12:29:13;;;;;;;0.70;0.70;;;10.10;99.90;;;;;;5074827;28;20611;-76
2023/03/16 12:32:11;;;;;;;0.70;0.70;;;10.20;99.90;;;;;;5056968;28;20048;-75
2023/03/16 12:35:01;;;;;;;0.60;0.60;;;10.10;99.90;;;;;;5020293;28;20517;-76
2023/03/16 12:37:47;;;;;;;0.60;0.60;;;10.20;99.90;;;;;;5075609;28;20040;-76
2023/03/16 12:40:38;;;;;;;0.60;0.60;;;10.10;99.90;;;;;;5071578;28;20111;-77
2023/03/16 12:43:30;;;;;;;0.70;0.70;;;10.00;99.90;;;;;;5074519;28;20048;-76
2023/03/16 12:46:15;;;;;;;0.70;0.70;;;9.90;99.90;;;;;;5057075;28;20564;-76
2023/03/16 12:48:47;;;;;;;0.70;0.70;;;9.90;99.90;;;;;;5073490;28;20047;-77
2023/03/16 12:51:14;;;;;;;0.68;0.68;;;10.00;99.90;;;;;;5068265;28;20118;-77
2023/03/16 12:53:42;;;;;;;0.70;0.70;;;9.90;99.90;;;;;;5071607;28;20051;-77
2023/03/16 12:56:17;;;;;;;0.70;0.70;;;9.80;99.90;;;;;;5068259;28;20078;-77
2023/03/16 12:58:49;;;;;;;0.70;0.70;;;9.90;99.90;;;;;;5055896;28;20443;-77
2023/03/16 13:01:18;;;;;;;0.70;0.70;;;9.90;99.90;;;;;;5074791;28;20101;-78
2023/03/16 13:03:48;;;;;;;0.60;0.60;;;9.90;99.90;;;;;;5053606;28;20043;-77
2023/03/16 13:06:20;;;;;;;0.63;0.63;;;9.90;99.90;;;;;;5059554;28;20048;-77
2023/03/16 13:08:54;;;;;;;0.70;0.70;;;10.00;99.90;;;;;;5074773;28;20044;-77
2023/03/16 13:11:20;;;;;;;0.60;0.60;;;10.00;99.90;;;;;;5051874;28;20036;-76
2023/03/16 13:13:51;;;;;;;0.68;0.68;;;9.80;99.90;;;;;;5069244;28;20050;-76